Iron City, Tennessee
Current Conditions -  °F | °C
As of 3:53 PM on Monday 24 Nov 2014 (Local Time) from KMSL Reporting Station
Clear Clear  
Wind Chill: 59°   Ceiling: Unl
Heat Index: 59°   Visibility: 10mi
Dew Point: 35°   Wind: 12mph
Humidity: 41%   Direction: 280°W
Pressure: 29.9"   Gusts: NA
Location:  35.02°N, 87.58°W
Report Text: KMSL 242153Z AUTO 28010KT 10SM CLR 15/02 A2990 RMK AO2 SLP121 T01500017
Loading
Personal Weather Stations






























Interactive Weather Map New forecast layout! Learn more

10-Day Weather Forecast

Advertisements
Track Severe Weather on mobile